sensor_id;sensor_type;location;lat;lon;timestamp;P1;durP1;ratioP1;P2;durP2;ratioP2
85160;SDS011;75526;43.726;4.346;2024-02-14T00:01:40;5.30;;;3.08;;
85160;SDS011;75526;43.726;4.346;2024-02-14T00:04:06;5.50;;;3.17;;
85160;SDS011;75526;43.726;4.346;2024-02-14T00:06:35;3.78;;;2.38;;
85160;SDS011;75526;43.726;4.346;2024-02-14T00:09:02;4.90;;;2.50;;
85160;SDS011;75526;43.726;4.346;2024-02-14T00:11:28;5.73;;;3.20;;
85160;SDS011;75526;43.726;4.346;2024-02-14T00:13:54;5.75;;;2.90;;
85160;SDS011;75526;43.726;4.346;2024-02-14T00:16:21;5.38;;;2.70;;
85160;SDS011;75526;43.726;4.346;2024-02-14T00:18:47;3.65;;;2.20;;
85160;SDS011;75526;43.726;4.346;2024-02-14T00:21:13;6.20;;;2.80;;
85160;SDS011;75526;43.726;4.346;2024-02-14T00:23:39;5.50;;;2.57;;
85160;SDS011;75526;43.726;4.346;2024-02-14T00:26:05;5.72;;;3.13;;
85160;SDS011;75526;43.726;4.346;2024-02-14T00:28:31;6.00;;;3.35;;
85160;SDS011;75526;43.726;4.346;2024-02-14T00:30:57;6.45;;;2.40;;
85160;SDS011;75526;43.726;4.346;2024-02-14T00:33:24;4.57;;;2.20;;
85160;SDS011;75526;43.726;4.346;2024-02-14T00:35:50;4.70;;;2.10;;
85160;SDS011;75526;43.726;4.346;2024-02-14T00:38:16;3.70;;;2.13;;
85160;SDS011;75526;43.726;4.346;2024-02-14T00:40:42;5.80;;;2.30;;
85160;SDS011;75526;43.726;4.346;2024-02-14T00:43:08;4.75;;;2.70;;
85160;SDS011;75526;43.726;4.346;2024-02-14T00:45:35;4.72;;;2.17;;
85160;SDS011;75526;43.726;4.346;2024-02-14T00:48:03;4.87;;;2.30;;
85160;SDS011;75526;43.726;4.346;2024-02-14T00:50:29;5.00;;;2.13;;
85160;SDS011;75526;43.726;4.346;2024-02-14T00:52:55;3.97;;;2.10;;
85160;SDS011;75526;43.726;4.346;2024-02-14T00:55:21;4.50;;;2.20;;
85160;SDS011;75526;43.726;4.346;2024-02-14T00:57:47;4.97;;;2.33;;
85160;SDS011;75526;43.726;4.346;2024-02-14T01:00:14;4.73;;;2.23;;
85160;SDS011;75526;43.726;4.346;2024-02-14T01:02:42;5.00;;;2.10;;
85160;SDS011;75526;43.726;4.346;2024-02-14T01:05:08;4.68;;;2.20;;
85160;SDS011;75526;43.726;4.346;2024-02-14T01:07:34;4.38;;;2.15;;
85160;SDS011;75526;43.726;4.346;2024-02-14T01:10:00;5.32;;;2.40;;
85160;SDS011;75526;43.726;4.346;2024-02-14T01:12:26;4.63;;;2.50;;
85160;SDS011;75526;43.726;4.346;2024-02-14T01:14:54;5.55;;;2.40;;
85160;SDS011;75526;43.726;4.346;2024-02-14T01:17:20;5.72;;;2.42;;
85160;SDS011;75526;43.726;4.346;2024-02-14T01:19:46;5.00;;;2.83;;
85160;SDS011;75526;43.726;4.346;2024-02-14T01:22:13;6.22;;;2.97;;
85160;SDS011;75526;43.726;4.346;2024-02-14T01:24:42;7.03;;;3.40;;
85160;SDS011;75526;43.726;4.346;2024-02-14T01:27:08;6.95;;;3.63;;
85160;SDS011;75526;43.726;4.346;2024-02-14T01:29:34;9.60;;;4.00;;
85160;SDS011;75526;43.726;4.346;2024-02-14T01:32:00;6.10;;;3.35;;
85160;SDS011;75526;43.726;4.346;2024-02-14T01:34:26;7.72;;;3.40;;
85160;SDS011;75526;43.726;4.346;2024-02-14T01:36:55;7.57;;;3.90;;
85160;SDS011;75526;43.726;4.346;2024-02-14T01:39:21;17.15;;;6.38;;
85160;SDS011;75526;43.726;4.346;2024-02-14T01:41:47;18.52;;;6.75;;
85160;SDS011;75526;43.726;4.346;2024-02-14T01:44:17;8.85;;;3.92;;
85160;SDS011;75526;43.726;4.346;2024-02-14T01:46:43;6.00;;;3.03;;
85160;SDS011;75526;43.726;4.346;2024-02-14T01:49:10;6.17;;;2.90;;
85160;SDS011;75526;43.726;4.346;2024-02-14T01:51:40;7.70;;;3.45;;
85160;SDS011;75526;43.726;4.346;2024-02-14T01:54:09;7.55;;;3.60;;
85160;SDS011;75526;43.726;4.346;2024-02-14T01:56:36;7.65;;;3.70;;
85160;SDS011;75526;43.726;4.346;2024-02-14T01:59:02;9.02;;;3.80;;
85160;SDS011;75526;43.726;4.346;2024-02-14T02:01:30;9.27;;;4.30;;
85160;SDS011;75526;43.726;4.346;2024-02-14T02:03:56;8.15;;;3.97;;
85160;SDS011;75526;43.726;4.346;2024-02-14T02:06:23;7.70;;;3.65;;
85160;SDS011;75526;43.726;4.346;2024-02-14T02:08:49;7.13;;;3.55;;
85160;SDS011;75526;43.726;4.346;2024-02-14T02:11:15;9.13;;;4.10;;
85160;SDS011;75526;43.726;4.346;2024-02-14T02:13:41;8.60;;;4.23;;
85160;SDS011;75526;43.726;4.346;2024-02-14T02:16:07;7.60;;;4.05;;
85160;SDS011;75526;43.726;4.346;2024-02-14T02:18:33;7.88;;;4.10;;
85160;SDS011;75526;43.726;4.346;2024-02-14T02:20:59;8.82;;;3.97;;
85160;SDS011;75526;43.726;4.346;2024-02-14T02:23:33;7.68;;;3.60;;
85160;SDS011;75526;43.726;4.346;2024-02-14T02:26:01;7.37;;;3.50;;
85160;SDS011;75526;43.726;4.346;2024-02-14T02:28:27;7.82;;;3.78;;
85160;SDS011;75526;43.726;4.346;2024-02-14T02:30:53;6.45;;;3.30;;
85160;SDS011;75526;43.726;4.346;2024-02-14T02:33:20;7.50;;;3.35;;
85160;SDS011;75526;43.726;4.346;2024-02-14T02:35:47;7.82;;;3.47;;
85160;SDS011;75526;43.726;4.346;2024-02-14T02:38:14;9.43;;;3.70;;
85160;SDS011;75526;43.726;4.346;2024-02-14T02:40:41;7.88;;;3.80;;
85160;SDS011;75526;43.726;4.346;2024-02-14T02:43:07;8.50;;;3.88;;
85160;SDS011;75526;43.726;4.346;2024-02-14T02:45:35;8.20;;;4.00;;
85160;SDS011;75526;43.726;4.346;2024-02-14T02:48:01;7.75;;;4.07;;
85160;SDS011;75526;43.726;4.346;2024-02-14T02:50:27;8.30;;;4.20;;
85160;SDS011;75526;43.726;4.346;2024-02-14T02:52:55;8.63;;;4.05;;
85160;SDS011;75526;43.726;4.346;2024-02-14T02:55:22;7.88;;;4.05;;
85160;SDS011;75526;43.726;4.346;2024-02-14T02:57:48;9.10;;;4.63;;
85160;SDS011;75526;43.726;4.346;2024-02-14T03:00:15;11.10;;;5.00;;
85160;SDS011;75526;43.726;4.346;2024-02-14T03:02:42;10.13;;;4.70;;
85160;SDS011;75526;43.726;4.346;2024-02-14T03:05:11;9.48;;;3.75;;
85160;SDS011;75526;43.726;4.346;2024-02-14T03:07:43;9.50;;;3.55;;
85160;SDS011;75526;43.726;4.346;2024-02-14T03:10:10;8.85;;;4.15;;
85160;SDS011;75526;43.726;4.346;2024-02-14T03:12:38;9.35;;;4.63;;
85160;SDS011;75526;43.726;4.346;2024-02-14T03:15:04;8.27;;;3.70;;
85160;SDS011;75526;43.726;4.346;2024-02-14T03:17:31;8.32;;;4.40;;
85160;SDS011;75526;43.726;4.346;2024-02-14T03:19:57;9.45;;;4.70;;
85160;SDS011;75526;43.726;4.346;2024-02-14T03:22:23;9.32;;;4.70;;
85160;SDS011;75526;43.726;4.346;2024-02-14T03:24:49;8.43;;;4.72;;
85160;SDS011;75526;43.726;4.346;2024-02-14T03:27:15;6.77;;;3.60;;
85160;SDS011;75526;43.726;4.346;2024-02-14T03:29:42;7.45;;;4.00;;
85160;SDS011;75526;43.726;4.346;2024-02-14T03:32:09;6.25;;;3.65;;
85160;SDS011;75526;43.726;4.346;2024-02-14T03:34:35;7.60;;;3.42;;
85160;SDS011;75526;43.726;4.346;2024-02-14T03:37:01;8.20;;;3.90;;
85160;SDS011;75526;43.726;4.346;2024-02-14T03:39:30;7.63;;;3.70;;
85160;SDS011;75526;43.726;4.346;2024-02-14T03:41:56;8.35;;;3.80;;
85160;SDS011;75526;43.726;4.346;2024-02-14T03:44:23;9.23;;;4.03;;
85160;SDS011;75526;43.726;4.346;2024-02-14T03:46:49;9.32;;;4.00;;
85160;SDS011;75526;43.726;4.346;2024-02-14T03:49:15;8.93;;;4.05;;
85160;SDS011;75526;43.726;4.346;2024-02-14T03:51:42;8.47;;;3.90;;
85160;SDS011;75526;43.726;4.346;2024-02-14T03:54:08;8.65;;;3.42;;
85160;SDS011;75526;43.726;4.346;2024-02-14T03:56:34;7.38;;;3.63;;
85160;SDS011;75526;43.726;4.346;2024-02-14T03:59:00;7.22;;;3.33;;
85160;SDS011;75526;43.726;4.346;2024-02-14T04:01:27;8.07;;;3.40;;
85160;SDS011;75526;43.726;4.346;2024-02-14T04:03:56;7.93;;;3.10;;
85160;SDS011;75526;43.726;4.346;2024-02-14T04:06:22;9.45;;;3.53;;
85160;SDS011;75526;43.726;4.346;2024-02-14T04:08:51;8.05;;;3.40;;
85160;SDS011;75526;43.726;4.346;2024-02-14T04:11:17;8.55;;;3.30;;
85160;SDS011;75526;43.726;4.346;2024-02-14T04:13:43;6.68;;;3.10;;
85160;SDS011;75526;43.726;4.346;2024-02-14T04:16:09;7.77;;;3.53;;
85160;SDS011;75526;43.726;4.346;2024-02-14T04:18:35;9.10;;;3.97;;
85160;SDS011;75526;43.726;4.346;2024-02-14T04:21:01;6.03;;;3.42;;
85160;SDS011;75526;43.726;4.346;2024-02-14T04:23:29;8.00;;;3.60;;
85160;SDS011;75526;43.726;4.346;2024-02-14T04:25:55;7.40;;;3.63;;
85160;SDS011;75526;43.726;4.346;2024-02-14T04:28:22;8.77;;;3.33;;
85160;SDS011;75526;43.726;4.346;2024-02-14T04:30:48;6.03;;;3.13;;
85160;SDS011;75526;43.726;4.346;2024-02-14T04:33:14;9.55;;;3.50;;
85160;SDS011;75526;43.726;4.346;2024-02-14T04:35:40;9.55;;;4.28;;
85160;SDS011;75526;43.726;4.346;2024-02-14T04:38:06;9.32;;;4.25;;
85160;SDS011;75526;43.726;4.346;2024-02-14T04:40:33;9.27;;;4.50;;
85160;SDS011;75526;43.726;4.346;2024-02-14T04:42:59;9.65;;;4.75;;
85160;SDS011;75526;43.726;4.346;2024-02-14T04:45:25;10.50;;;4.85;;
85160;SDS011;75526;43.726;4.346;2024-02-14T04:47:51;10.73;;;4.90;;
85160;SDS011;75526;43.726;4.346;2024-02-14T04:50:17;10.43;;;4.95;;
85160;SDS011;75526;43.726;4.346;2024-02-14T04:52:44;15.13;;;9.47;;
85160;SDS011;75526;43.726;4.346;2024-02-14T04:55:10;15.27;;;7.82;;
85160;SDS011;75526;43.726;4.346;2024-02-14T04:57:36;12.25;;;6.53;;
85160;SDS011;75526;43.726;4.346;2024-02-14T05:00:03;11.43;;;5.40;;
85160;SDS011;75526;43.726;4.346;2024-02-14T05:02:30;11.15;;;5.47;;
85160;SDS011;75526;43.726;4.346;2024-02-14T05:04:56;11.30;;;5.13;;
85160;SDS011;75526;43.726;4.346;2024-02-14T05:07:22;10.70;;;5.15;;
85160;SDS011;75526;43.726;4.346;2024-02-14T05:09:48;11.73;;;5.30;;
85160;SDS011;75526;43.726;4.346;2024-02-14T05:12:17;12.00;;;5.80;;
85160;SDS011;75526;43.726;4.346;2024-02-14T05:14:43;11.15;;;5.65;;
85160;SDS011;75526;43.726;4.346;2024-02-14T05:17:09;10.63;;;5.10;;
85160;SDS011;75526;43.726;4.346;2024-02-14T05:19:35;11.52;;;5.47;;
85160;SDS011;75526;43.726;4.346;2024-02-14T05:22:01;9.48;;;5.20;;
85160;SDS011;75526;43.726;4.346;2024-02-14T05:24:27;8.40;;;4.80;;
85160;SDS011;75526;43.726;4.346;2024-02-14T05:26:54;12.32;;;5.40;;
85160;SDS011;75526;43.726;4.346;2024-02-14T05:29:20;14.53;;;5.23;;
85160;SDS011;75526;43.726;4.346;2024-02-14T05:31:47;9.98;;;5.32;;
85160;SDS011;75526;43.726;4.346;2024-02-14T05:34:14;10.38;;;4.85;;
85160;SDS011;75526;43.726;4.346;2024-02-14T05:36:40;9.77;;;4.80;;
85160;SDS011;75526;43.726;4.346;2024-02-14T05:39:07;10.20;;;4.97;;
85160;SDS011;75526;43.726;4.346;2024-02-14T05:41:33;10.43;;;5.00;;
85160;SDS011;75526;43.726;4.346;2024-02-14T05:44:00;9.27;;;4.93;;
85160;SDS011;75526;43.726;4.346;2024-02-14T05:46:26;9.75;;;5.38;;
85160;SDS011;75526;43.726;4.346;2024-02-14T05:48:53;12.38;;;5.72;;
85160;SDS011;75526;43.726;4.346;2024-02-14T05:51:19;9.63;;;4.68;;
85160;SDS011;75526;43.726;4.346;2024-02-14T05:53:45;10.43;;;5.00;;
85160;SDS011;75526;43.726;4.346;2024-02-14T05:56:11;10.40;;;5.03;;
85160;SDS011;75526;43.726;4.346;2024-02-14T05:58:37;11.00;;;5.00;;
85160;SDS011;75526;43.726;4.346;2024-02-14T06:01:03;11.57;;;5.65;;
85160;SDS011;75526;43.726;4.346;2024-02-14T06:03:30;10.88;;;5.53;;
85160;SDS011;75526;43.726;4.346;2024-02-14T06:05:56;11.77;;;5.60;;
85160;SDS011;75526;43.726;4.346;2024-02-14T06:08:22;10.45;;;5.63;;
85160;SDS011;75526;43.726;4.346;2024-02-14T06:10:49;11.25;;;5.70;;
85160;SDS011;75526;43.726;4.346;2024-02-14T06:13:15;12.32;;;5.90;;
85160;SDS011;75526;43.726;4.346;2024-02-14T06:15:41;11.30;;;5.72;;
85160;SDS011;75526;43.726;4.346;2024-02-14T06:18:07;10.83;;;6.00;;
85160;SDS011;75526;43.726;4.346;2024-02-14T06:20:33;16.73;;;8.10;;
85160;SDS011;75526;43.726;4.346;2024-02-14T06:22:59;23.17;;;10.75;;
85160;SDS011;75526;43.726;4.346;2024-02-14T06:25:25;15.70;;;8.65;;
85160;SDS011;75526;43.726;4.346;2024-02-14T06:27:51;14.57;;;7.68;;
85160;SDS011;75526;43.726;4.346;2024-02-14T06:30:19;16.43;;;7.50;;
85160;SDS011;75526;43.726;4.346;2024-02-14T06:32:45;15.68;;;7.57;;
85160;SDS011;75526;43.726;4.346;2024-02-14T06:35:11;16.05;;;8.80;;
85160;SDS011;75526;43.726;4.346;2024-02-14T06:37:39;18.13;;;8.93;;
85160;SDS011;75526;43.726;4.346;2024-02-14T06:40:06;18.50;;;8.63;;
85160;SDS011;75526;43.726;4.346;2024-02-14T06:42:33;15.60;;;8.30;;
85160;SDS011;75526;43.726;4.346;2024-02-14T06:44:59;13.20;;;7.07;;
85160;SDS011;75526;43.726;4.346;2024-02-14T06:47:25;13.40;;;7.18;;
85160;SDS011;75526;43.726;4.346;2024-02-14T06:49:55;14.30;;;7.00;;
85160;SDS011;75526;43.726;4.346;2024-02-14T06:52:21;14.95;;;6.78;;
85160;SDS011;75526;43.726;4.346;2024-02-14T06:54:47;13.37;;;6.37;;
85160;SDS011;75526;43.726;4.346;2024-02-14T06:57:13;12.80;;;6.47;;
85160;SDS011;75526;43.726;4.346;2024-02-14T06:59:39;13.82;;;7.30;;
85160;SDS011;75526;43.726;4.346;2024-02-14T07:02:05;15.32;;;7.43;;
85160;SDS011;75526;43.726;4.346;2024-02-14T07:04:31;13.88;;;7.20;;
85160;SDS011;75526;43.726;4.346;2024-02-14T07:06:58;15.90;;;7.53;;
85160;SDS011;75526;43.726;4.346;2024-02-14T07:09:25;15.95;;;6.88;;
85160;SDS011;75526;43.726;4.346;2024-02-14T07:11:51;16.38;;;7.88;;
85160;SDS011;75526;43.726;4.346;2024-02-14T07:14:22;19.67;;;9.05;;
85160;SDS011;75526;43.726;4.346;2024-02-14T07:16:48;20.13;;;9.70;;
85160;SDS011;75526;43.726;4.346;2024-02-14T07:19:15;21.40;;;10.47;;
85160;SDS011;75526;43.726;4.346;2024-02-14T07:21:41;19.83;;;9.88;;
85160;SDS011;75526;43.726;4.346;2024-02-14T07:24:08;18.50;;;9.10;;
85160;SDS011;75526;43.726;4.346;2024-02-14T07:26:35;17.27;;;8.25;;
85160;SDS011;75526;43.726;4.346;2024-02-14T07:29:01;22.50;;;12.55;;
85160;SDS011;75526;43.726;4.346;2024-02-14T07:31:29;22.07;;;10.90;;
85160;SDS011;75526;43.726;4.346;2024-02-14T07:33:59;19.73;;;8.73;;
85160;SDS011;75526;43.726;4.346;2024-02-14T07:36:28;17.00;;;8.60;;
85160;SDS011;75526;43.726;4.346;2024-02-14T07:38:54;16.92;;;8.00;;
85160;SDS011;75526;43.726;4.346;2024-02-14T07:41:20;16.17;;;8.23;;
85160;SDS011;75526;43.726;4.346;2024-02-14T07:43:46;15.57;;;7.73;;
85160;SDS011;75526;43.726;4.346;2024-02-14T07:46:16;14.38;;;7.18;;
85160;SDS011;75526;43.726;4.346;2024-02-14T07:48:42;13.38;;;6.60;;
85160;SDS011;75526;43.726;4.346;2024-02-14T07:51:09;14.13;;;6.72;;
85160;SDS011;75526;43.726;4.346;2024-02-14T07:53:35;13.88;;;6.90;;
85160;SDS011;75526;43.726;4.346;2024-02-14T07:56:01;14.37;;;6.27;;
85160;SDS011;75526;43.726;4.346;2024-02-14T07:58:27;12.43;;;6.30;;
85160;SDS011;75526;43.726;4.346;2024-02-14T08:00:54;12.95;;;6.25;;
85160;SDS011;75526;43.726;4.346;2024-02-14T08:03:20;12.57;;;6.40;;
85160;SDS011;75526;43.726;4.346;2024-02-14T08:05:46;13.82;;;6.35;;
85160;SDS011;75526;43.726;4.346;2024-02-14T08:08:12;14.93;;;7.03;;
85160;SDS011;75526;43.726;4.346;2024-02-14T08:10:38;14.70;;;6.75;;
85160;SDS011;75526;43.726;4.346;2024-02-14T08:13:04;11.85;;;6.50;;
85160;SDS011;75526;43.726;4.346;2024-02-14T08:15:30;13.60;;;6.85;;
85160;SDS011;75526;43.726;4.346;2024-02-14T08:17:57;12.85;;;6.50;;
85160;SDS011;75526;43.726;4.346;2024-02-14T08:20:24;14.17;;;6.70;;
85160;SDS011;75526;43.726;4.346;2024-02-14T08:22:50;10.85;;;6.05;;
85160;SDS011;75526;43.726;4.346;2024-02-14T08:25:16;12.27;;;6.40;;
85160;SDS011;75526;43.726;4.346;2024-02-14T08:27:42;11.75;;;6.00;;
85160;SDS011;75526;43.726;4.346;2024-02-14T08:30:08;13.13;;;7.05;;
85160;SDS011;75526;43.726;4.346;2024-02-14T08:32:34;11.63;;;6.67;;
85160;SDS011;75526;43.726;4.346;2024-02-14T08:35:00;11.05;;;5.82;;
85160;SDS011;75526;43.726;4.346;2024-02-14T08:37:27;8.55;;;5.00;;
85160;SDS011;75526;43.726;4.346;2024-02-14T08:39:53;11.43;;;5.75;;
85160;SDS011;75526;43.726;4.346;2024-02-14T08:42:19;10.15;;;5.40;;
85160;SDS011;75526;43.726;4.346;2024-02-14T08:44:45;10.03;;;5.17;;
85160;SDS011;75526;43.726;4.346;2024-02-14T08:47:11;10.63;;;5.25;;
85160;SDS011;75526;43.726;4.346;2024-02-14T08:49:40;11.68;;;4.88;;
85160;SDS011;75526;43.726;4.346;2024-02-14T08:52:07;10.18;;;4.80;;
85160;SDS011;75526;43.726;4.346;2024-02-14T08:54:33;10.48;;;4.95;;
85160;SDS011;75526;43.726;4.346;2024-02-14T08:56:59;10.43;;;4.87;;
85160;SDS011;75526;43.726;4.346;2024-02-14T08:59:25;9.25;;;5.40;;
85160;SDS011;75526;43.726;4.346;2024-02-14T09:01:51;11.05;;;5.63;;
85160;SDS011;75526;43.726;4.346;2024-02-14T09:04:18;12.57;;;6.45;;
85160;SDS011;75526;43.726;4.346;2024-02-14T09:06:47;12.52;;;6.65;;
85160;SDS011;75526;43.726;4.346;2024-02-14T09:09:13;12.37;;;7.10;;
85160;SDS011;75526;43.726;4.346;2024-02-14T09:11:40;12.35;;;7.90;;
85160;SDS011;75526;43.726;4.346;2024-02-14T09:14:06;13.07;;;8.35;;
85160;SDS011;75526;43.726;4.346;2024-02-14T09:16:33;15.10;;;9.10;;
85160;SDS011;75526;43.726;4.346;2024-02-14T09:18:59;11.80;;;7.90;;
85160;SDS011;75526;43.726;4.346;2024-02-14T09:21:26;13.27;;;7.53;;
85160;SDS011;75526;43.726;4.346;2024-02-14T09:23:56;11.85;;;6.60;;
85160;SDS011;75526;43.726;4.346;2024-02-14T09:26:22;11.20;;;6.50;;
85160;SDS011;75526;43.726;4.346;2024-02-14T09:28:48;9.93;;;6.20;;
85160;SDS011;75526;43.726;4.346;2024-02-14T09:31:18;9.20;;;6.60;;
85160;SDS011;75526;43.726;4.346;2024-02-14T09:33:45;11.73;;;5.90;;
85160;SDS011;75526;43.726;4.346;2024-02-14T09:36:12;10.00;;;5.72;;
85160;SDS011;75526;43.726;4.346;2024-02-14T09:38:39;10.60;;;5.85;;
85160;SDS011;75526;43.726;4.346;2024-02-14T09:41:10;11.55;;;7.85;;
85160;SDS011;75526;43.726;4.346;2024-02-14T09:43:38;13.20;;;7.65;;
85160;SDS011;75526;43.726;4.346;2024-02-14T09:46:06;11.73;;;7.70;;
85160;SDS011;75526;43.726;4.346;2024-02-14T09:48:33;11.10;;;7.30;;
85160;SDS011;75526;43.726;4.346;2024-02-14T09:51:00;11.13;;;6.95;;
85160;SDS011;75526;43.726;4.346;2024-02-14T09:53:27;13.18;;;7.78;;
85160;SDS011;75526;43.726;4.346;2024-02-14T09:55:54;12.35;;;7.60;;
85160;SDS011;75526;43.726;4.346;2024-02-14T09:58:20;13.57;;;8.47;;
85160;SDS011;75526;43.726;4.346;2024-02-14T10:00:47;14.35;;;8.30;;
85160;SDS011;75526;43.726;4.346;2024-02-14T10:03:13;13.77;;;8.60;;
85160;SDS011;75526;43.726;4.346;2024-02-14T10:05:40;13.27;;;8.00;;
85160;SDS011;75526;43.726;4.346;2024-02-14T10:08:06;14.73;;;9.18;;
85160;SDS011;75526;43.726;4.346;2024-02-14T10:10:34;14.67;;;8.30;;
85160;SDS011;75526;43.726;4.346;2024-02-14T10:13:00;12.10;;;6.70;;
85160;SDS011;75526;43.726;4.346;2024-02-14T10:15:26;11.75;;;6.30;;
85160;SDS011;75526;43.726;4.346;2024-02-14T10:17:52;10.20;;;6.95;;
85160;SDS011;75526;43.726;4.346;2024-02-14T10:20:19;11.55;;;6.53;;
85160;SDS011;75526;43.726;4.346;2024-02-14T10:22:46;11.47;;;6.93;;
85160;SDS011;75526;43.726;4.346;2024-02-14T10:25:13;10.77;;;6.50;;
85160;SDS011;75526;43.726;4.346;2024-02-14T10:27:40;12.38;;;7.30;;
85160;SDS011;75526;43.726;4.346;2024-02-14T10:30:06;15.35;;;7.40;;
85160;SDS011;75526;43.726;4.346;2024-02-14T10:32:36;11.20;;;6.22;;
85160;SDS011;75526;43.726;4.346;2024-02-14T10:35:06;10.47;;;4.37;;
85160;SDS011;75526;43.726;4.346;2024-02-14T10:37:37;9.43;;;4.70;;
85160;SDS011;75526;43.726;4.346;2024-02-14T10:40:03;7.93;;;3.70;;
85160;SDS011;75526;43.726;4.346;2024-02-14T10:42:33;7.68;;;4.15;;
85160;SDS011;75526;43.726;4.346;2024-02-14T10:45:02;7.70;;;3.90;;
85160;SDS011;75526;43.726;4.346;2024-02-14T10:47:32;8.50;;;3.20;;
85160;SDS011;75526;43.726;4.346;2024-02-14T10:50:00;6.97;;;3.45;;
85160;SDS011;75526;43.726;4.346;2024-02-14T10:52:28;7.25;;;3.45;;
85160;SDS011;75526;43.726;4.346;2024-02-14T10:54:58;7.10;;;3.50;;
85160;SDS011;75526;43.726;4.346;2024-02-14T10:57:25;6.22;;;2.90;;
85160;SDS011;75526;43.726;4.346;2024-02-14T10:59:51;6.53;;;3.13;;
85160;SDS011;75526;43.726;4.346;2024-02-14T11:02:17;7.32;;;3.13;;
85160;SDS011;75526;43.726;4.346;2024-02-14T11:04:45;6.35;;;3.17;;
85160;SDS011;75526;43.726;4.346;2024-02-14T11:07:11;6.97;;;3.40;;
85160;SDS011;75526;43.726;4.346;2024-02-14T11:09:40;7.00;;;3.00;;
85160;SDS011;75526;43.726;4.346;2024-02-14T11:12:07;5.93;;;2.73;;
85160;SDS011;75526;43.726;4.346;2024-02-14T11:14:34;7.03;;;3.13;;
85160;SDS011;75526;43.726;4.346;2024-02-14T11:17:03;7.13;;;3.40;;
85160;SDS011;75526;43.726;4.346;2024-02-14T11:19:34;5.80;;;2.95;;
85160;SDS011;75526;43.726;4.346;2024-02-14T11:22:10;6.20;;;3.10;;
85160;SDS011;75526;43.726;4.346;2024-02-14T11:24:38;6.37;;;3.23;;
85160;SDS011;75526;43.726;4.346;2024-02-14T11:27:09;7.35;;;3.38;;
85160;SDS011;75526;43.726;4.346;2024-02-14T11:29:35;6.50;;;3.35;;
85160;SDS011;75526;43.726;4.346;2024-02-14T11:32:01;7.05;;;3.15;;
85160;SDS011;75526;43.726;4.346;2024-02-14T11:34:28;6.68;;;3.47;;
85160;SDS011;75526;43.726;4.346;2024-02-14T11:36:57;6.50;;;3.23;;
85160;SDS011;75526;43.726;4.346;2024-02-14T11:39:24;7.15;;;3.38;;
85160;SDS011;75526;43.726;4.346;2024-02-14T11:41:50;6.55;;;3.30;;
85160;SDS011;75526;43.726;4.346;2024-02-14T11:44:16;6.25;;;3.15;;
85160;SDS011;75526;43.726;4.346;2024-02-14T11:46:42;6.68;;;2.83;;
85160;SDS011;75526;43.726;4.346;2024-02-14T11:49:08;6.17;;;3.13;;
85160;SDS011;75526;43.726;4.346;2024-02-14T11:51:34;7.00;;;3.40;;
85160;SDS011;75526;43.726;4.346;2024-02-14T11:54:01;6.25;;;3.10;;
85160;SDS011;75526;43.726;4.346;2024-02-14T11:56:31;7.90;;;3.20;;
85160;SDS011;75526;43.726;4.346;2024-02-14T11:59:01;5.35;;;3.03;;
85160;SDS011;75526;43.726;4.346;2024-02-14T12:01:30;7.70;;;2.97;;
85160;SDS011;75526;43.726;4.346;2024-02-14T12:04:00;6.93;;;3.15;;
85160;SDS011;75526;43.726;4.346;2024-02-14T12:06:30;6.13;;;3.10;;
85160;SDS011;75526;43.726;4.346;2024-02-14T12:08:57;5.82;;;2.90;;
85160;SDS011;75526;43.726;4.346;2024-02-14T12:11:30;6.82;;;2.67;;
85160;SDS011;75526;43.726;4.346;2024-02-14T12:14:00;6.27;;;2.40;;
85160;SDS011;75526;43.726;4.346;2024-02-14T12:16:26;4.22;;;2.15;;
85160;SDS011;75526;43.726;4.346;2024-02-14T12:21:37;5.85;;;2.25;;
85160;SDS011;75526;43.726;4.346;2024-02-14T12:24:06;5.32;;;2.28;;
85160;SDS011;75526;43.726;4.346;2024-02-14T12:26:33;4.90;;;2.50;;
85160;SDS011;75526;43.726;4.346;2024-02-14T12:29:02;5.57;;;2.55;;
85160;SDS011;75526;43.726;4.346;2024-02-14T12:31:32;5.50;;;2.30;;
85160;SDS011;75526;43.726;4.346;2024-02-14T12:33:59;4.63;;;2.20;;
85160;SDS011;75526;43.726;4.346;2024-02-14T12:36:33;4.30;;;2.03;;
85160;SDS011;75526;43.726;4.346;2024-02-14T12:39:00;4.03;;;2.00;;
85160;SDS011;75526;43.726;4.346;2024-02-14T12:41:29;4.72;;;2.30;;
85160;SDS011;75526;43.726;4.346;2024-02-14T12:43:56;5.38;;;2.22;;
85160;SDS011;75526;43.726;4.346;2024-02-14T12:46:22;4.97;;;2.25;;
85160;SDS011;75526;43.726;4.346;2024-02-14T12:48:48;6.80;;;2.60;;
85160;SDS011;75526;43.726;4.346;2024-02-14T12:51:14;6.07;;;2.50;;
85160;SDS011;75526;43.726;4.346;2024-02-14T12:53:41;6.38;;;3.17;;
85160;SDS011;75526;43.726;4.346;2024-02-14T12:56:07;6.05;;;2.90;;
85160;SDS011;75526;43.726;4.346;2024-02-14T12:58:33;6.38;;;3.35;;
85160;SDS011;75526;43.726;4.346;2024-02-14T13:00:59;6.97;;;2.97;;
85160;SDS011;75526;43.726;4.346;2024-02-14T13:03:26;5.83;;;2.53;;
85160;SDS011;75526;43.726;4.346;2024-02-14T13:05:53;4.88;;;2.50;;
85160;SDS011;75526;43.726;4.346;2024-02-14T13:08:20;5.50;;;2.33;;
85160;SDS011;75526;43.726;4.346;2024-02-14T13:10:46;6.70;;;2.65;;
85160;SDS011;75526;43.726;4.346;2024-02-14T13:13:12;6.13;;;2.80;;
85160;SDS011;75526;43.726;4.346;2024-02-14T13:15:39;5.87;;;2.70;;
85160;SDS011;75526;43.726;4.346;2024-02-14T13:18:06;4.63;;;2.28;;
85160;SDS011;75526;43.726;4.346;2024-02-14T13:20:32;6.28;;;2.72;;
85160;SDS011;75526;43.726;4.346;2024-02-14T13:22:58;6.03;;;2.90;;
85160;SDS011;75526;43.726;4.346;2024-02-14T13:25:25;6.05;;;2.60;;
85160;SDS011;75526;43.726;4.346;2024-02-14T13:27:51;4.97;;;2.50;;
85160;SDS011;75526;43.726;4.346;2024-02-14T13:30:18;5.50;;;2.83;;
85160;SDS011;75526;43.726;4.346;2024-02-14T13:32:44;6.15;;;2.50;;
85160;SDS011;75526;43.726;4.346;2024-02-14T13:35:10;4.18;;;2.08;;
85160;SDS011;75526;43.726;4.346;2024-02-14T13:37:38;4.45;;;2.30;;
85160;SDS011;75526;43.726;4.346;2024-02-14T13:40:05;5.17;;;2.47;;
85160;SDS011;75526;43.726;4.346;2024-02-14T13:42:35;4.88;;;2.13;;
85160;SDS011;75526;43.726;4.346;2024-02-14T13:45:03;5.45;;;2.70;;
85160;SDS011;75526;43.726;4.346;2024-02-14T13:47:29;7.05;;;2.35;;
85160;SDS011;75526;43.726;4.346;2024-02-14T13:49:55;5.57;;;2.60;;
85160;SDS011;75526;43.726;4.346;2024-02-14T13:52:21;7.17;;;3.23;;
85160;SDS011;75526;43.726;4.346;2024-02-14T13:54:47;9.40;;;4.40;;
85160;SDS011;75526;43.726;4.346;2024-02-14T13:57:13;8.73;;;4.70;;
85160;SDS011;75526;43.726;4.346;2024-02-14T13:59:39;12.20;;;4.80;;
85160;SDS011;75526;43.726;4.346;2024-02-14T14:02:05;9.38;;;4.50;;
85160;SDS011;75526;43.726;4.346;2024-02-14T14:04:31;10.07;;;4.60;;
85160;SDS011;75526;43.726;4.346;2024-02-14T14:06:59;8.93;;;4.82;;
85160;SDS011;75526;43.726;4.346;2024-02-14T14:09:29;10.07;;;5.53;;
85160;SDS011;75526;43.726;4.346;2024-02-14T14:11:57;9.15;;;5.15;;
85160;SDS011;75526;43.726;4.346;2024-02-14T14:14:23;8.55;;;5.13;;
85160;SDS011;75526;43.726;4.346;2024-02-14T14:16:52;12.77;;;5.97;;
85160;SDS011;75526;43.726;4.346;2024-02-14T14:19:18;10.38;;;5.70;;
85160;SDS011;75526;43.726;4.346;2024-02-14T14:21:47;12.07;;;6.20;;
85160;SDS011;75526;43.726;4.346;2024-02-14T14:24:13;11.48;;;6.18;;
85160;SDS011;75526;43.726;4.346;2024-02-14T14:26:40;11.75;;;6.80;;
85160;SDS011;75526;43.726;4.346;2024-02-14T14:29:06;11.63;;;6.63;;
85160;SDS011;75526;43.726;4.346;2024-02-14T14:31:33;12.55;;;7.03;;
85160;SDS011;75526;43.726;4.346;2024-02-14T14:34:00;11.48;;;7.22;;
85160;SDS011;75526;43.726;4.346;2024-02-14T14:36:27;13.40;;;7.20;;
85160;SDS011;75526;43.726;4.346;2024-02-14T14:38:53;12.02;;;7.20;;
85160;SDS011;75526;43.726;4.346;2024-02-14T14:41:23;11.77;;;6.87;;
85160;SDS011;75526;43.726;4.346;2024-02-14T14:43:49;11.80;;;6.93;;